sensor_id;sensor_type;location;lat;lon;timestamp;temperature;humidity
871;DHT22;422;51.280;7.236;2024-01-15T00:01:23;0.20;99.90
871;DHT22;422;51.280;7.236;2024-01-15T00:03:50;0.20;99.90
871;DHT22;422;51.280;7.236;2024-01-15T00:06:17;0.20;99.90
871;DHT22;422;51.280;7.236;2024-01-15T00:08:45;0.30;99.90
871;DHT22;422;51.280;7.236;2024-01-15T00:11:12;0.30;99.90
871;DHT22;422;51.280;7.236;2024-01-15T00:13:40;0.20;99.90
871;DHT22;422;51.280;7.236;2024-01-15T00:16:07;0.20;99.90
871;DHT22;422;51.280;7.236;2024-01-15T00:18:36;0.30;99.90
871;DHT22;422;51.280;7.236;2024-01-15T00:21:04;0.30;99.90
871;DHT22;422;51.280;7.236;2024-01-15T00:23:31;0.30;99.90
871;DHT22;422;51.280;7.236;2024-01-15T00:25:58;0.30;99.90
871;DHT22;422;51.280;7.236;2024-01-15T00:28:26;0.30;99.90
871;DHT22;422;51.280;7.236;2024-01-15T00:30:53;0.20;99.90
871;DHT22;422;51.280;7.236;2024-01-15T00:33:21;0.30;99.90
871;DHT22;422;51.280;7.236;2024-01-15T00:35:50;0.30;99.90
871;DHT22;422;51.280;7.236;2024-01-15T00:38:17;0.30;99.90
871;DHT22;422;51.280;7.236;2024-01-15T00:40:44;0.30;99.90
871;DHT22;422;51.280;7.236;2024-01-15T00:43:12;0.30;99.90
871;DHT22;422;51.280;7.236;2024-01-15T00:45:39;0.30;99.90
871;DHT22;422;51.280;7.236;2024-01-15T00:48:07;0.30;99.90
871;DHT22;422;51.280;7.236;2024-01-15T00:50:35;0.40;99.90
871;DHT22;422;51.280;7.236;2024-01-15T00:53:03;0.40;99.90
871;DHT22;422;51.280;7.236;2024-01-15T00:55:31;0.40;99.90
871;DHT22;422;51.280;7.236;2024-01-15T00:57:58;0.30;99.90
871;DHT22;422;51.280;7.236;2024-01-15T01:00:26;0.40;99.90
871;DHT22;422;51.280;7.236;2024-01-15T01:02:53;0.30;99.90
871;DHT22;422;51.280;7.236;2024-01-15T01:05:20;0.30;99.90
871;DHT22;422;51.280;7.236;2024-01-15T01:07:48;0.40;99.90
871;DHT22;422;51.280;7.236;2024-01-15T01:10:16;0.40;99.90
871;DHT22;422;51.280;7.236;2024-01-15T01:12:44;0.40;99.90
871;DHT22;422;51.280;7.236;2024-01-15T01:15:11;0.40;99.90
871;DHT22;422;51.280;7.236;2024-01-15T01:17:38;0.40;99.90
871;DHT22;422;51.280;7.236;2024-01-15T01:20:07;0.40;99.90
871;DHT22;422;51.280;7.236;2024-01-15T01:22:35;0.40;99.90
871;DHT22;422;51.280;7.236;2024-01-15T01:25:02;0.40;99.90
871;DHT22;422;51.280;7.236;2024-01-15T01:27:31;0.40;99.90
871;DHT22;422;51.280;7.236;2024-01-15T01:29:58;0.40;99.90
871;DHT22;422;51.280;7.236;2024-01-15T01:32:26;0.50;99.90
871;DHT22;422;51.280;7.236;2024-01-15T01:34:53;0.40;99.90
871;DHT22;422;51.280;7.236;2024-01-15T01:37:20;0.40;99.90
871;DHT22;422;51.280;7.236;2024-01-15T01:39:48;0.50;99.90
871;DHT22;422;51.280;7.236;2024-01-15T01:42:15;0.40;99.90
871;DHT22;422;51.280;7.236;2024-01-15T01:44:44;0.40;99.90
871;DHT22;422;51.280;7.236;2024-01-15T01:47:11;0.40;99.90
871;DHT22;422;51.280;7.236;2024-01-15T01:49:39;0.40;99.90
871;DHT22;422;51.280;7.236;2024-01-15T01:52:07;0.50;99.90
871;DHT22;422;51.280;7.236;2024-01-15T01:54:35;0.50;99.90
871;DHT22;422;51.280;7.236;2024-01-15T01:57:05;0.50;99.90
871;DHT22;422;51.280;7.236;2024-01-15T01:59:34;0.40;99.90
871;DHT22;422;51.280;7.236;2024-01-15T02:02:04;0.50;99.90
871;DHT22;422;51.280;7.236;2024-01-15T02:04:33;0.50;99.90
871;DHT22;422;51.280;7.236;2024-01-15T02:07:01;0.50;99.90
871;DHT22;422;51.280;7.236;2024-01-15T02:09:28;0.50;99.90
871;DHT22;422;51.280;7.236;2024-01-15T02:11:55;0.60;99.90
871;DHT22;422;51.280;7.236;2024-01-15T02:14:23;0.50;99.90
871;DHT22;422;51.280;7.236;2024-01-15T02:16:50;0.50;99.90
871;DHT22;422;51.280;7.236;2024-01-15T02:19:19;0.50;99.90
871;DHT22;422;51.280;7.236;2024-01-15T02:21:46;0.50;99.90
871;DHT22;422;51.280;7.236;2024-01-15T02:24:15;0.50;99.90
871;DHT22;422;51.280;7.236;2024-01-15T02:26:42;0.50;99.90
871;DHT22;422;51.280;7.236;2024-01-15T02:29:10;0.50;99.90
871;DHT22;422;51.280;7.236;2024-01-15T02:31:38;0.50;99.90
871;DHT22;422;51.280;7.236;2024-01-15T02:34:06;0.50;99.90
871;DHT22;422;51.280;7.236;2024-01-15T02:36:33;0.50;99.90
871;DHT22;422;51.280;7.236;2024-01-15T02:39:00;0.50;99.90
871;DHT22;422;51.280;7.236;2024-01-15T02:41:28;0.50;99.90
871;DHT22;422;51.280;7.236;2024-01-15T02:43:56;0.50;99.90
871;DHT22;422;51.280;7.236;2024-01-15T02:46:23;0.50;99.90
871;DHT22;422;51.280;7.236;2024-01-15T02:48:50;0.60;99.90
871;DHT22;422;51.280;7.236;2024-01-15T02:51:17;0.50;99.90
871;DHT22;422;51.280;7.236;2024-01-15T02:53:45;0.60;99.90
871;DHT22;422;51.280;7.236;2024-01-15T02:56:12;0.60;99.90
871;DHT22;422;51.280;7.236;2024-01-15T02:58:41;0.60;99.90
871;DHT22;422;51.280;7.236;2024-01-15T03:01:08;0.60;99.90
871;DHT22;422;51.280;7.236;2024-01-15T03:03:35;0.60;99.90
871;DHT22;422;51.280;7.236;2024-01-15T03:06:02;0.60;99.90
871;DHT22;422;51.280;7.236;2024-01-15T03:08:30;0.60;99.90
871;DHT22;422;51.280;7.236;2024-01-15T03:10:57;0.60;99.90
871;DHT22;422;51.280;7.236;2024-01-15T03:13:24;0.60;99.90
871;DHT22;422;51.280;7.236;2024-01-15T03:15:53;0.60;99.90
871;DHT22;422;51.280;7.236;2024-01-15T03:18:20;0.60;99.90
871;DHT22;422;51.280;7.236;2024-01-15T03:20:47;0.60;99.90
871;DHT22;422;51.280;7.236;2024-01-15T03:23:14;0.60;99.90
871;DHT22;422;51.280;7.236;2024-01-15T03:25:42;0.60;99.90
871;DHT22;422;51.280;7.236;2024-01-15T03:28:09;0.60;99.90
871;DHT22;422;51.280;7.236;2024-01-15T03:30:36;0.60;99.90
871;DHT22;422;51.280;7.236;2024-01-15T03:33:05;0.60;99.90
871;DHT22;422;51.280;7.236;2024-01-15T03:35:32;0.60;99.90
871;DHT22;422;51.280;7.236;2024-01-15T03:37:59;0.70;99.90
871;DHT22;422;51.280;7.236;2024-01-15T03:40:26;0.60;99.90
871;DHT22;422;51.280;7.236;2024-01-15T03:42:53;0.70;99.90
871;DHT22;422;51.280;7.236;2024-01-15T03:45:21;0.70;99.90
871;DHT22;422;51.280;7.236;2024-01-15T03:47:48;0.70;99.90
871;DHT22;422;51.280;7.236;2024-01-15T03:50:16;0.70;99.90
871;DHT22;422;51.280;7.236;2024-01-15T03:52:43;0.70;99.90
871;DHT22;422;51.280;7.236;2024-01-15T03:55:10;0.70;99.90
871;DHT22;422;51.280;7.236;2024-01-15T03:57:38;0.60;99.90
871;DHT22;422;51.280;7.236;2024-01-15T04:00:07;0.70;99.90
871;DHT22;422;51.280;7.236;2024-01-15T04:02:34;0.70;99.90
871;DHT22;422;51.280;7.236;2024-01-15T04:05:01;0.70;99.90
871;DHT22;422;51.280;7.236;2024-01-15T04:07:30;0.70;99.90
871;DHT22;422;51.280;7.236;2024-01-15T04:09:57;0.60;99.90
871;DHT22;422;51.280;7.236;2024-01-15T04:12:25;0.60;99.90
871;DHT22;422;51.280;7.236;2024-01-15T04:14:52;0.70;99.90
871;DHT22;422;51.280;7.236;2024-01-15T04:17:19;0.70;99.90
871;DHT22;422;51.280;7.236;2024-01-15T04:19:47;0.70;99.90
871;DHT22;422;51.280;7.236;2024-01-15T04:22:14;0.70;99.90
871;DHT22;422;51.280;7.236;2024-01-15T04:24:43;0.70;99.90
871;DHT22;422;51.280;7.236;2024-01-15T04:27:10;0.60;99.90
871;DHT22;422;51.280;7.236;2024-01-15T04:29:38;0.60;99.90
871;DHT22;422;51.280;7.236;2024-01-15T04:32:05;0.70;99.90
871;DHT22;422;51.280;7.236;2024-01-15T04:34:33;0.70;99.90
871;DHT22;422;51.280;7.236;2024-01-15T04:37:00;0.70;99.90
871;DHT22;422;51.280;7.236;2024-01-15T04:39:27;0.70;99.90
871;DHT22;422;51.280;7.236;2024-01-15T04:41:55;0.70;99.90
871;DHT22;422;51.280;7.236;2024-01-15T04:44:23;0.70;99.90
871;DHT22;422;51.280;7.236;2024-01-15T04:46:50;0.70;99.90
871;DHT22;422;51.280;7.236;2024-01-15T04:49:17;0.70;99.90
871;DHT22;422;51.280;7.236;2024-01-15T04:51:44;0.70;99.90
871;DHT22;422;51.280;7.236;2024-01-15T04:54:11;0.70;99.90
871;DHT22;422;51.280;7.236;2024-01-15T04:56:38;0.80;99.90
871;DHT22;422;51.280;7.236;2024-01-15T04:59:07;0.70;99.90
871;DHT22;422;51.280;7.236;2024-01-15T05:01:34;0.70;99.90
871;DHT22;422;51.280;7.236;2024-01-15T05:04:01;0.70;99.90
871;DHT22;422;51.280;7.236;2024-01-15T05:06:28;0.70;99.90
871;DHT22;422;51.280;7.236;2024-01-15T05:08:56;0.70;99.90
871;DHT22;422;51.280;7.236;2024-01-15T05:11:23;0.70;99.90
871;DHT22;422;51.280;7.236;2024-01-15T05:13:51;0.70;99.90
871;DHT22;422;51.280;7.236;2024-01-15T05:16:20;0.70;99.90
871;DHT22;422;51.280;7.236;2024-01-15T05:18:47;0.70;99.90
871;DHT22;422;51.280;7.236;2024-01-15T05:21:13;0.70;99.90
871;DHT22;422;51.280;7.236;2024-01-15T05:23:41;0.70;99.90
871;DHT22;422;51.280;7.236;2024-01-15T05:26:08;0.70;99.90
871;DHT22;422;51.280;7.236;2024-01-15T05:28:35;0.70;99.90
871;DHT22;422;51.280;7.236;2024-01-15T05:31:03;0.70;99.90
871;DHT22;422;51.280;7.236;2024-01-15T05:33:32;0.70;99.90
871;DHT22;422;51.280;7.236;2024-01-15T05:35:59;0.70;99.90
871;DHT22;422;51.280;7.236;2024-01-15T05:38:27;0.70;99.90
871;DHT22;422;51.280;7.236;2024-01-15T05:40:54;0.60;99.90
871;DHT22;422;51.280;7.236;2024-01-15T05:43:21;0.70;99.90
871;DHT22;422;51.280;7.236;2024-01-15T05:45:48;0.70;99.90
871;DHT22;422;51.280;7.236;2024-01-15T05:48:15;0.70;99.90
871;DHT22;422;51.280;7.236;2024-01-15T05:50:44;0.70;99.90
871;DHT22;422;51.280;7.236;2024-01-15T05:53:11;0.70;99.90
871;DHT22;422;51.280;7.236;2024-01-15T05:55:38;0.70;99.90
871;DHT22;422;51.280;7.236;2024-01-15T05:58:05;0.70;99.90
871;DHT22;422;51.280;7.236;2024-01-15T06:00:33;0.70;99.90
871;DHT22;422;51.280;7.236;2024-01-15T06:03:01;0.70;99.90
871;DHT22;422;51.280;7.236;2024-01-15T06:05:28;0.70;99.90
871;DHT22;422;51.280;7.236;2024-01-15T06:07:57;0.70;99.90
871;DHT22;422;51.280;7.236;2024-01-15T06:10:24;0.70;99.90
871;DHT22;422;51.280;7.236;2024-01-15T06:12:51;0.70;99.90
871;DHT22;422;51.280;7.236;2024-01-15T06:15:18;0.70;99.90
871;DHT22;422;51.280;7.236;2024-01-15T06:17:45;0.80;99.90
871;DHT22;422;51.280;7.236;2024-01-15T06:20:13;0.80;99.90
871;DHT22;422;51.280;7.236;2024-01-15T06:22:40;0.80;99.90
871;DHT22;422;51.280;7.236;2024-01-15T06:25:09;0.80;99.90
871;DHT22;422;51.280;7.236;2024-01-15T06:27:36;0.80;99.90
871;DHT22;422;51.280;7.236;2024-01-15T06:30:04;0.80;99.90
871;DHT22;422;51.280;7.236;2024-01-15T06:32:32;0.90;99.90
871;DHT22;422;51.280;7.236;2024-01-15T06:34:59;0.80;99.90
871;DHT22;422;51.280;7.236;2024-01-15T06:37:26;0.80;99.90
871;DHT22;422;51.280;7.236;2024-01-15T06:39:53;0.80;99.90
871;DHT22;422;51.280;7.236;2024-01-15T06:42:22;1.00;99.90
871;DHT22;422;51.280;7.236;2024-01-15T06:44:49;1.00;99.90
871;DHT22;422;51.280;7.236;2024-01-15T06:47:16;0.90;99.90
871;DHT22;422;51.280;7.236;2024-01-15T06:49:44;0.80;99.90
871;DHT22;422;51.280;7.236;2024-01-15T06:52:11;0.80;99.90
871;DHT22;422;51.280;7.236;2024-01-15T06:54:39;0.80;99.90
871;DHT22;422;51.280;7.236;2024-01-15T06:57:06;0.80;99.90
871;DHT22;422;51.280;7.236;2024-01-15T06:59:35;0.80;99.90
871;DHT22;422;51.280;7.236;2024-01-15T07:02:02;0.80;99.90
871;DHT22;422;51.280;7.236;2024-01-15T07:04:30;0.80;99.90
871;DHT22;422;51.280;7.236;2024-01-15T07:06:57;0.80;99.90
871;DHT22;422;51.280;7.236;2024-01-15T07:09:24;0.80;99.90
871;DHT22;422;51.280;7.236;2024-01-15T07:11:51;0.80;99.90
871;DHT22;422;51.280;7.236;2024-01-15T07:14:19;0.80;99.90
871;DHT22;422;51.280;7.236;2024-01-15T07:16:47;0.80;99.90
871;DHT22;422;51.280;7.236;2024-01-15T07:19:14;0.80;99.90
871;DHT22;422;51.280;7.236;2024-01-15T07:21:42;0.80;99.90
871;DHT22;422;51.280;7.236;2024-01-15T07:24:09;0.80;99.90
871;DHT22;422;51.280;7.236;2024-01-15T07:26:36;0.70;99.90
871;DHT22;422;51.280;7.236;2024-01-15T07:29:04;0.80;99.90
871;DHT22;422;51.280;7.236;2024-01-15T07:31:31;0.80;99.90
871;DHT22;422;51.280;7.236;2024-01-15T07:34:00;0.70;99.90
871;DHT22;422;51.280;7.236;2024-01-15T07:36:28;0.70;99.90
871;DHT22;422;51.280;7.236;2024-01-15T07:38:55;0.70;99.90
871;DHT22;422;51.280;7.236;2024-01-15T07:41:22;0.80;99.90
871;DHT22;422;51.280;7.236;2024-01-15T07:43:50;0.90;99.90
871;DHT22;422;51.280;7.236;2024-01-15T07:46:17;0.80;99.90
871;DHT22;422;51.280;7.236;2024-01-15T07:48:44;0.80;99.90
871;DHT22;422;51.280;7.236;2024-01-15T07:51:13;0.80;99.90
871;DHT22;422;51.280;7.236;2024-01-15T07:53:40;0.70;99.90
871;DHT22;422;51.280;7.236;2024-01-15T07:56:07;0.70;99.90
871;DHT22;422;51.280;7.236;2024-01-15T07:58:35;0.70;99.90
871;DHT22;422;51.280;7.236;2024-01-15T08:01:02;0.70;99.90
871;DHT22;422;51.280;7.236;2024-01-15T08:03:30;0.70;99.90
871;DHT22;422;51.280;7.236;2024-01-15T08:05:57;0.70;99.90
871;DHT22;422;51.280;7.236;2024-01-15T08:08:26;0.70;99.90
871;DHT22;422;51.280;7.236;2024-01-15T08:10:53;0.80;99.90
871;DHT22;422;51.280;7.236;2024-01-15T08:13:21;0.80;99.90
871;DHT22;422;51.280;7.236;2024-01-15T08:15:48;0.80;99.90
871;DHT22;422;51.280;7.236;2024-01-15T08:18:16;0.80;99.90
871;DHT22;422;51.280;7.236;2024-01-15T08:20:43;0.80;99.90
871;DHT22;422;51.280;7.236;2024-01-15T08:23:10;0.70;99.90
871;DHT22;422;51.280;7.236;2024-01-15T08:25:39;0.70;99.90
871;DHT22;422;51.280;7.236;2024-01-15T08:28:07;0.80;99.90
871;DHT22;422;51.280;7.236;2024-01-15T08:30:34;0.80;99.90
871;DHT22;422;51.280;7.236;2024-01-15T08:33:01;0.80;99.90
871;DHT22;422;51.280;7.236;2024-01-15T08:35:29;0.80;99.90
871;DHT22;422;51.280;7.236;2024-01-15T08:37:56;0.80;99.90
871;DHT22;422;51.280;7.236;2024-01-15T08:40:24;0.80;99.90
871;DHT22;422;51.280;7.236;2024-01-15T08:42:53;0.80;99.90
871;DHT22;422;51.280;7.236;2024-01-15T08:45:20;0.70;99.90
871;DHT22;422;51.280;7.236;2024-01-15T08:47:47;0.70;99.90
871;DHT22;422;51.280;7.236;2024-01-15T08:50:14;0.70;99.90
871;DHT22;422;51.280;7.236;2024-01-15T08:52:42;0.70;99.90
871;DHT22;422;51.280;7.236;2024-01-15T08:55:09;0.70;99.90
871;DHT22;422;51.280;7.236;2024-01-15T08:57:36;0.70;99.90
871;DHT22;422;51.280;7.236;2024-01-15T09:00:06;0.70;99.90
871;DHT22;422;51.280;7.236;2024-01-15T09:02:35;0.70;99.90
871;DHT22;422;51.280;7.236;2024-01-15T09:05:03;0.70;99.90
871;DHT22;422;51.280;7.236;2024-01-15T09:07:32;0.70;99.90
871;DHT22;422;51.280;7.236;2024-01-15T09:09:59;0.60;99.90
871;DHT22;422;51.280;7.236;2024-01-15T09:12:27;0.60;99.90
871;DHT22;422;51.280;7.236;2024-01-15T09:14:55;0.70;99.90
871;DHT22;422;51.280;7.236;2024-01-15T09:17:24;0.70;99.90
871;DHT22;422;51.280;7.236;2024-01-15T09:19:53;0.70;99.90
871;DHT22;422;51.280;7.236;2024-01-15T09:22:21;0.70;99.90
871;DHT22;422;51.280;7.236;2024-01-15T09:24:48;0.70;99.90
871;DHT22;422;51.280;7.236;2024-01-15T09:27:15;0.70;99.90
871;DHT22;422;51.280;7.236;2024-01-15T09:29:43;0.80;99.90
871;DHT22;422;51.280;7.236;2024-01-15T09:32:11;0.70;99.90
871;DHT22;422;51.280;7.236;2024-01-15T09:34:40;0.60;99.90
871;DHT22;422;51.280;7.236;2024-01-15T09:37:08;0.70;99.90
871;DHT22;422;51.280;7.236;2024-01-15T09:39:35;0.60;99.90
871;DHT22;422;51.280;7.236;2024-01-15T09:42:04;0.70;99.90
871;DHT22;422;51.280;7.236;2024-01-15T09:44:32;0.70;99.90
871;DHT22;422;51.280;7.236;2024-01-15T09:47:00;0.70;99.90
871;DHT22;422;51.280;7.236;2024-01-15T09:49:28;0.60;99.90
871;DHT22;422;51.280;7.236;2024-01-15T09:51:57;0.70;99.90
871;DHT22;422;51.280;7.236;2024-01-15T09:54:25;0.60;99.90
871;DHT22;422;51.280;7.236;2024-01-15T09:56:54;0.60;99.90
871;DHT22;422;51.280;7.236;2024-01-15T09:59:22;0.70;99.90
871;DHT22;422;51.280;7.236;2024-01-15T10:01:52;0.70;99.90
871;DHT22;422;51.280;7.236;2024-01-15T10:04:20;0.90;99.90
871;DHT22;422;51.280;7.236;2024-01-15T10:06:51;0.80;99.90
871;DHT22;422;51.280;7.236;2024-01-15T10:09:20;0.80;99.90
871;DHT22;422;51.280;7.236;2024-01-15T10:11:47;0.90;99.90
871;DHT22;422;51.280;7.236;2024-01-15T10:14:15;0.80;99.90
871;DHT22;422;51.280;7.236;2024-01-15T10:16:42;0.80;99.90
871;DHT22;422;51.280;7.236;2024-01-15T10:19:10;0.80;99.90
871;DHT22;422;51.280;7.236;2024-01-15T10:21:38;0.80;99.90
871;DHT22;422;51.280;7.236;2024-01-15T10:24:06;0.80;99.90
871;DHT22;422;51.280;7.236;2024-01-15T10:26:35;0.70;99.90
871;DHT22;422;51.280;7.236;2024-01-15T10:29:02;0.70;99.90
871;DHT22;422;51.280;7.236;2024-01-15T10:31:31;0.70;99.90
871;DHT22;422;51.280;7.236;2024-01-15T10:34:10;0.70;99.90
871;DHT22;422;51.280;7.236;2024-01-15T10:36:41;0.70;99.90
871;DHT22;422;51.280;7.236;2024-01-15T10:39:08;0.70;99.90
871;DHT22;422;51.280;7.236;2024-01-15T10:41:39;0.70;99.90
871;DHT22;422;51.280;7.236;2024-01-15T10:44:06;0.80;99.90
871;DHT22;422;51.280;7.236;2024-01-15T10:46:35;0.90;99.90
871;DHT22;422;51.280;7.236;2024-01-15T10:49:03;0.90;99.90
871;DHT22;422;51.280;7.236;2024-01-15T10:51:31;0.80;99.90
871;DHT22;422;51.280;7.236;2024-01-15T10:54:00;0.80;99.90
871;DHT22;422;51.280;7.236;2024-01-15T10:56:28;0.90;99.90
871;DHT22;422;51.280;7.236;2024-01-15T10:58:58;0.80;99.90
871;DHT22;422;51.280;7.236;2024-01-15T11:01:26;0.80;99.90
871;DHT22;422;51.280;7.236;2024-01-15T11:03:55;0.70;99.90
871;DHT22;422;51.280;7.236;2024-01-15T11:06:24;0.70;99.90
871;DHT22;422;51.280;7.236;2024-01-15T11:08:52;0.60;99.90
871;DHT22;422;51.280;7.236;2024-01-15T11:11:21;0.70;99.90
871;DHT22;422;51.280;7.236;2024-01-15T11:13:49;0.70;99.90
871;DHT22;422;51.280;7.236;2024-01-15T11:16:19;0.70;99.90
871;DHT22;422;51.280;7.236;2024-01-15T11:19:02;0.70;99.90
871;DHT22;422;51.280;7.236;2024-01-15T11:21:32;0.70;99.90
871;DHT22;422;51.280;7.236;2024-01-15T11:24:00;0.60;99.90
871;DHT22;422;51.280;7.236;2024-01-15T11:26:29;0.60;99.90
871;DHT22;422;51.280;7.236;2024-01-15T11:28:58;0.70;99.90
871;DHT22;422;51.280;7.236;2024-01-15T11:31:57;0.70;99.90
871;DHT22;422;51.280;7.236;2024-01-15T11:34:49;0.70;99.90
871;DHT22;422;51.280;7.236;2024-01-15T11:37:17;0.70;99.90
871;DHT22;422;51.280;7.236;2024-01-15T11:39:45;0.70;99.90
871;DHT22;422;51.280;7.236;2024-01-15T11:42:14;0.70;99.90
871;DHT22;422;51.280;7.236;2024-01-15T11:44:42;0.80;99.90
871;DHT22;422;51.280;7.236;2024-01-15T11:47:12;0.80;99.90
871;DHT22;422;51.280;7.236;2024-01-15T11:49:58;0.80;99.90
871;DHT22;422;51.280;7.236;2024-01-15T11:52:29;0.80;99.90
871;DHT22;422;51.280;7.236;2024-01-15T11:55:02;0.70;99.90
871;DHT22;422;51.280;7.236;2024-01-15T11:57:40;0.70;99.90
871;DHT22;422;51.280;7.236;2024-01-15T12:00:10;0.70;99.90
871;DHT22;422;51.280;7.236;2024-01-15T12:02:40;0.80;99.90
871;DHT22;422;51.280;7.236;2024-01-15T12:05:08;0.80;99.90
871;DHT22;422;51.280;7.236;2024-01-15T12:07:38;0.80;99.90
871;DHT22;422;51.280;7.236;2024-01-15T12:10:09;0.80;99.90
871;DHT22;422;51.280;7.236;2024-01-15T12:12:57;0.80;99.90
871;DHT22;422;51.280;7.236;2024-01-15T12:15:25;0.80;99.90
871;DHT22;422;51.280;7.236;2024-01-15T12:17:57;0.70;99.90
871;DHT22;422;51.280;7.236;2024-01-15T12:20:25;0.70;99.90
871;DHT22;422;51.280;7.236;2024-01-15T12:22:53;0.70;99.90
871;DHT22;422;51.280;7.236;2024-01-15T12:25:21;0.80;99.90
871;DHT22;422;51.280;7.236;2024-01-15T12:27:49;0.80;99.90
871;DHT22;422;51.280;7.236;2024-01-15T12:30:17;0.70;99.90
871;DHT22;422;51.280;7.236;2024-01-15T12:32:45;0.60;99.90
871;DHT22;422;51.280;7.236;2024-01-15T12:35:15;0.70;99.90
871;DHT22;422;51.280;7.236;2024-01-15T12:37:43;0.70;99.90
871;DHT22;422;51.280;7.236;2024-01-15T12:40:12;0.70;99.90
871;DHT22;422;51.280;7.236;2024-01-15T12:42:40;0.70;99.90
871;DHT22;422;51.280;7.236;2024-01-15T12:45:10;0.70;99.90
871;DHT22;422;51.280;7.236;2024-01-15T12:47:38;0.80;99.90
871;DHT22;422;51.280;7.236;2024-01-15T12:50:07;0.80;99.90
871;DHT22;422;51.280;7.236;2024-01-15T12:52:36;0.80;99.90
871;DHT22;422;51.280;7.236;2024-01-15T12:55:05;0.90;99.90
871;DHT22;422;51.280;7.236;2024-01-15T12:57:34;1.00;99.90
871;DHT22;422;51.280;7.236;2024-01-15T13:00:02;1.00;99.90
871;DHT22;422;51.280;7.236;2024-01-15T13:02:32;1.00;99.90
871;DHT22;422;51.280;7.236;2024-01-15T13:05:00;1.10;99.90
871;DHT22;422;51.280;7.236;2024-01-15T13:07:29;1.10;99.90
871;DHT22;422;51.280;7.236;2024-01-15T13:09:58;1.10;99.90
871;DHT22;422;51.280;7.236;2024-01-15T13:12:26;1.10;99.90
871;DHT22;422;51.280;7.236;2024-01-15T13:14:53;1.20;99.90
871;DHT22;422;51.280;7.236;2024-01-15T13:17:20;1.10;99.90
871;DHT22;422;51.280;7.236;2024-01-15T13:19:48;1.20;99.90
871;DHT22;422;51.280;7.236;2024-01-15T13:22:16;1.20;99.90
871;DHT22;422;51.280;7.236;2024-01-15T13:24:43;1.20;99.90
871;DHT22;422;51.280;7.236;2024-01-15T13:27:13;1.20;99.90
871;DHT22;422;51.280;7.236;2024-01-15T13:29:40;1.20;99.90
871;DHT22;422;51.280;7.236;2024-01-15T13:32:07;1.20;99.90
871;DHT22;422;51.280;7.236;2024-01-15T13:34:35;1.10;99.90
871;DHT22;422;51.280;7.236;2024-01-15T13:37:03;1.10;99.90
871;DHT22;422;51.280;7.236;2024-01-15T13:39:31;1.10;99.90
871;DHT22;422;51.280;7.236;2024-01-15T13:41:59;1.10;99.90
871;DHT22;422;51.280;7.236;2024-01-15T13:44:28;1.00;99.90
871;DHT22;422;51.280;7.236;2024-01-15T13:46:56;1.10;99.90
871;DHT22;422;51.280;7.236;2024-01-15T13:49:24;1.10;99.90
871;DHT22;422;51.280;7.236;2024-01-15T13:51:52;1.10;99.90
871;DHT22;422;51.280;7.236;2024-01-15T13:54:19;1.10;99.90
871;DHT22;422;51.280;7.236;2024-01-15T13:56:47;1.20;99.90
871;DHT22;422;51.280;7.236;2024-01-15T13:59:15;1.20;99.90
871;DHT22;422;51.280;7.236;2024-01-15T14:01:44;1.20;99.90
871;DHT22;422;51.280;7.236;2024-01-15T14:04:13;1.10;99.90
871;DHT22;422;51.280;7.236;2024-01-15T14:06:41;1.10;99.90
871;DHT22;422;51.280;7.236;2024-01-15T14:09:08;1.00;99.90
871;DHT22;422;51.280;7.236;2024-01-15T14:11:36;1.00;99.90
871;DHT22;422;51.280;7.236;2024-01-15T14:14:04;1.00;99.90
871;DHT22;422;51.280;7.236;2024-01-15T14:16:33;1.00;99.90
871;DHT22;422;51.280;7.236;2024-01-15T14:19:02;1.00;99.90
871;DHT22;422;51.280;7.236;2024-01-15T14:21:30;1.00;99.90
871;DHT22;422;51.280;7.236;2024-01-15T14:23:57;1.00;99.90
871;DHT22;422;51.280;7.236;2024-01-15T14:26:25;0.90;99.90
871;DHT22;422;51.280;7.236;2024-01-15T14:28:53;1.00;99.90
871;DHT22;422;51.280;7.236;2024-01-15T14:31:21;0.90;99.90
871;DHT22;422;51.280;7.236;2024-01-15T14:33:50;1.00;99.90
871;DHT22;422;51.280;7.236;2024-01-15T14:36:22;1.00;99.90
871;DHT22;422;51.280;7.236;2024-01-15T14:38:50;0.90;99.90
871;DHT22;422;51.280;7.236;2024-01-15T14:41:17;0.90;99.90
871;DHT22;422;51.280;7.236;2024-01-15T14:43:45;0.90;99.90
871;DHT22;422;51.280;7.236;2024-01-15T14:46:12;0.90;99.90
871;DHT22;422;51.280;7.236;2024-01-15T14:48:39;0.90;99.90
871;DHT22;422;51.280;7.236;2024-01-15T14:51:07;0.90;99.90
871;DHT22;422;51.280;7.236;2024-01-15T14:53:36;0.90;99.90
871;DHT22;422;51.280;7.236;2024-01-15T14:56:03;0.90;99.90
871;DHT22;422;51.280;7.236;2024-01-15T14:58:31;0.90;99.90
871;DHT22;422;51.280;7.236;2024-01-15T15:00:59;0.90;99.90
871;DHT22;422;51.280;7.236;2024-01-15T15:03:26;0.90;99.90
871;DHT22;422;51.280;7.236;2024-01-15T15:05:55;0.90;99.90
871;DHT22;422;51.280;7.236;2024-01-15T15:08:22;0.80;99.90
871;DHT22;422;51.280;7.236;2024-01-15T15:10:52;0.90;99.90
871;DHT22;422;51.280;7.236;2024-01-15T15:13:19;0.80;99.90
871;DHT22;422;51.280;7.236;2024-01-15T15:15:48;0.90;99.90
871;DHT22;422;51.280;7.236;2024-01-15T15:18:17;0.90;99.90
871;DHT22;422;51.280;7.236;2024-01-15T15:20:46;0.90;99.90
871;DHT22;422;51.280;7.236;2024-01-15T15:23:13;0.90;99.90
871;DHT22;422;51.280;7.236;2024-01-15T15:25:44;0.80;99.90
871;DHT22;422;51.280;7.236;2024-01-15T15:28:14;0.90;99.90
871;DHT22;422;51.280;7.236;2024-01-15T15:30:42;0.80;99.90
871;DHT22;422;51.280;7.236;2024-01-15T15:33:09;0.90;99.90
871;DHT22;422;51.280;7.236;2024-01-15T15:35:37;0.90;99.90
871;DHT22;422;51.280;7.236;2024-01-15T15:38:05;0.80;99.90
871;DHT22;422;51.280;7.236;2024-01-15T15:40:32;0.80;99.90
871;DHT22;422;51.280;7.236;2024-01-15T15:43:01;0.80;99.90
871;DHT22;422;51.280;7.236;2024-01-15T15:45:30;0.80;99.90
871;DHT22;422;51.280;7.236;2024-01-15T15:47:58;0.80;99.90
871;DHT22;422;51.280;7.236;2024-01-15T15:50:25;0.70;99.90
871;DHT22;422;51.280;7.236;2024-01-15T15:52:53;0.70;99.90
871;DHT22;422;51.280;7.236;2024-01-15T15:55:21;0.70;99.90
871;DHT22;422;51.280;7.236;2024-01-15T15:57:49;0.80;99.90
871;DHT22;422;51.280;7.236;2024-01-15T16:00:17;0.80;99.90
871;DHT22;422;51.280;7.236;2024-01-15T16:02:47;0.80;99.90
871;DHT22;422;51.280;7.236;2024-01-15T16:05:15;0.90;99.90
871;DHT22;422;51.280;7.236;2024-01-15T16:07:43;0.80;99.90
871;DHT22;422;51.280;7.236;2024-01-15T16:10:11;0.80;99.90
871;DHT22;422;51.280;7.236;2024-01-15T16:12:40;0.70;99.90
871;DHT22;422;51.280;7.236;2024-01-15T16:15:17;0.70;99.90
871;DHT22;422;51.280;7.236;2024-01-15T16:17:46;0.70;99.90
871;DHT22;422;51.280;7.236;2024-01-15T16:20:14;0.70;99.90
871;DHT22;422;51.280;7.236;2024-01-15T16:22:41;0.70;99.90
871;DHT22;422;51.280;7.236;2024-01-15T16:25:10;0.60;99.90
871;DHT22;422;51.280;7.236;2024-01-15T16:27:38;0.70;99.90
871;DHT22;422;51.280;7.236;2024-01-15T16:30:08;0.70;99.90
871;DHT22;422;51.280;7.236;2024-01-15T16:32:37;0.70;99.90
871;DHT22;422;51.280;7.236;2024-01-15T16:35:08;0.70;99.90
871;DHT22;422;51.280;7.236;2024-01-15T16:37:36;0.60;99.90
871;DHT22;422;51.280;7.236;2024-01-15T16:40:05;0.60;99.90
871;DHT22;422;51.280;7.236;2024-01-15T16:42:34;0.60;99.90
871;DHT22;422;51.280;7.236;2024-01-15T16:45:02;0.60;99.90
871;DHT22;422;51.280;7.236;2024-01-15T16:47:29;0.60;99.90
871;DHT22;422;51.280;7.236;2024-01-15T16:49:58;0.60;99.90
871;DHT22;422;51.280;7.236;2024-01-15T16:52:27;0.60;99.90
871;DHT22;422;51.280;7.236;2024-01-15T16:54:54;0.60;99.90
871;DHT22;422;51.280;7.236;2024-01-15T16:57:22;0.60;99.90